Phillips, Illinois
Current Conditions -  °F | °C
As of 10:15 PM on Wednesday 17 Dec 2014 (Local Time) from KCUL Reporting Station
Clear Clear  
Wind Chill: 26°   Ceiling: Unl
Heat Index: 31°   Visibility: 10mi
Dew Point: 29°   Wind: 5mph
Humidity: 93%   Direction: 10°N
Pressure: 30.3"   Gusts: NA
Location:  38.1681°N, 88.0517°W
Report Text: KCUL 180415Z AUTO 01004KT 10SM CLR 00/M01 A3030 RMK AO2 T10051015
Loading
Personal Weather Stations






























Interactive Weather Map New forecast layout! Learn more

10-Day Weather Forecast

Advertisements
Track Severe Weather on mobile